createdAt,value
2023-01-06T19:38:34.075Z,100542.69
2023-01-06T19:41:04.931Z,100553.81
2023-01-06T19:43:34.204Z,100552.69
2023-01-06T19:46:17.758Z,100550.06
2023-01-06T19:48:45.994Z,100547.34
2023-01-06T19:51:21.629Z,100544.00
2023-01-06T19:53:51.728Z,100543.53
2023-01-06T19:56:19.237Z,100553.81
2023-01-06T19:58:52.307Z,100548.91
2023-01-06T20:01:21.364Z,100547.34
2023-01-06T20:03:50.722Z,100558.28
2023-01-06T20:06:18.258Z,100554.00
2023-01-06T20:08:47.144Z,100556.47
2023-01-06T20:11:14.678Z,100551.50
2023-01-06T20:13:42.179Z,100555.28
2023-01-06T20:16:10.154Z,100550.38
2023-01-06T20:18:37.982Z,100553.44
2023-01-06T20:21:05.797Z,100553.22
2023-01-06T20:23:35.523Z,100559.69
2023-01-06T20:26:03.024Z,100560.13
2023-01-06T20:28:30.585Z,100562.38
2023-01-06T20:30:58.077Z,100569.09
2023-01-06T20:33:25.546Z,100565.72
2023-01-06T20:35:53.191Z,100567.69
2023-01-06T20:38:20.688Z,100578.19
2023-01-06T20:40:48.246Z,100565.41
2023-01-06T20:43:15.714Z,100579.75
2023-01-06T20:45:43.386Z,100578.44
2023-01-06T20:48:11.323Z,100577.34
2023-01-06T20:50:42.026Z,100584.78
2023-01-06T20:53:10.650Z,100582.31
2023-01-06T20:55:38.208Z,100586.06
2023-01-06T20:58:06.063Z,100583.38
2023-01-06T21:00:33.563Z,100587.38
2023-01-06T21:03:01.421Z,100585.13
2023-01-06T21:05:28.977Z,100585.72
2023-01-06T21:07:57.096Z,100592.00
2023-01-06T21:10:24.773Z,100602.94
2023-01-06T21:12:52.405Z,100609.19
2023-01-06T21:15:20.540Z,100609.19
2023-01-06T21:17:48.031Z,100610.25
2023-01-06T21:20:15.633Z,100617.63
2023-01-06T21:22:43.179Z,100618.94
2023-01-06T21:25:11.108Z,100614.19
2023-01-06T21:27:38.660Z,100615.97
2023-01-06T21:30:06.649Z,100617.31
2023-01-06T21:32:34.114Z,100605.84
2023-01-06T21:35:01.662Z,100616.56
2023-01-06T21:37:29.337Z,100615.19
2023-01-06T21:39:56.971Z,100617.63
2023-01-06T21:42:44.723Z,100614.78
2023-01-06T21:45:12.219Z,100623.06
2023-01-06T21:47:39.698Z,100615.47
2023-01-06T21:50:09.342Z,100621.94
2023-01-06T21:52:37.188Z,100621.94
2023-01-06T21:55:05.096Z,100606.66
2023-01-06T21:57:32.594Z,100614.50
2023-01-06T22:00:00.125Z,100616.13
2023-01-06T22:02:28.019Z,100618.56
2023-01-06T22:04:55.571Z,100612.78
2023-01-06T22:07:23.852Z,100618.16
2023-01-06T22:09:52.537Z,100606.31
2023-01-06T22:12:23.097Z,100616.94
2023-01-06T22:14:53.156Z,100615.31
2023-01-06T22:17:23.873Z,100609.94
2023-01-06T22:19:54.065Z,100624.25
2023-01-06T22:22:22.769Z,100610.84
2023-01-06T22:24:52.754Z,100615.28
2023-01-06T22:27:20.218Z,100624.53
2023-01-06T22:29:47.724Z,100623.34
2023-01-06T22:32:15.312Z,100618.88
2023-01-06T22:34:42.800Z,100635.63
2023-01-06T22:37:10.460Z,100631.16
2023-01-06T22:39:37.942Z,100635.81
2023-01-06T22:42:05.510Z,100630.84
2023-01-06T22:44:33.040Z,100626.75
2023-01-06T22:47:01.021Z,100624.97
2023-01-06T22:49:28.498Z,100638.88
2023-01-06T22:51:56.011Z,100625.84
2023-01-06T22:54:23.576Z,100631.63
2023-01-06T22:56:51.053Z,100630.06
2023-01-06T22:59:18.621Z,100628.22
2023-01-06T23:01:46.190Z,100620.38
2023-01-06T23:04:15.021Z,100624.88
2023-01-06T23:06:42.600Z,100617.75
2023-01-06T23:09:10.131Z,100620.22
2023-01-06T23:11:41.678Z,100617.09
2023-01-06T23:14:11.438Z,100632.91
2023-01-06T23:16:40.933Z,100634.63
2023-01-06T23:19:11.823Z,100634.63
2023-01-06T23:21:40.276Z,100640.28
2023-01-06T23:24:08.919Z,100628.59
2023-01-06T23:26:45.483Z,100635.09
2023-01-06T23:29:13.797Z,100628.81
2023-01-06T23:31:43.588Z,100641.63
2023-01-06T23:34:14.347Z,100644.09
2023-01-06T23:36:45.074Z,100636.91
2023-01-06T23:39:15.388Z,100644.53
2023-01-06T23:41:43.332Z,100649.34
2023-01-06T23:44:15.858Z,100642.41
2023-01-06T23:46:43.929Z,100648.88
2023-01-06T23:49:13.545Z,100652.88
2023-01-06T23:51:41.092Z,100667.00
2023-01-06T23:54:10.577Z,100671.28
2023-01-06T23:56:38.386Z,100677.00
2023-01-06T23:59:08.939Z,100679.28
